Terminal Aerodrome Forecast
Issued by NWS Wakefield, VA

Home | Current Version | Previous Version | Text Only | Print | Product List | Glossary On
Versions: 1 2 3 4 5 6 7 8 9 10 11 12 13 14 15 16
526
FTUS41 KAKQ 062214 AAA
TAFSBY
TAF AMD
KSBY 062214Z 0622/0718 06013G20KT 3SM -RA OVC008
      TEMPO 0622/0701 2SM RA BR OVC014
     FM070200 02012KT 2SM RA OVC006
     FM070600 36008KT 5SM BR OVC008
     FM071200 35004KT 4SM BR OVC005
     FM071500 34007KT P6SM BKN008=

USA.gov is the U.S. government's official web portal to all federal, state and local government web resources and services.